Time;durP1;ratioP1;P1;durP2;ratioP2;P2;SDS_P1;SDS_P2;PMS_P1;PMS_P2;Temp;Humidity;BMP_temperature;BMP_pressure;BME280_temperature;BME280_humidity;BME280_pressure;Samples;Min_cycle;Max_cycle;Signal;HPM_P1;HPM_P2
2022/03/05 00:02:13;;;;;;;32.22;15.40;;;;;;;-0.46;88.99;101841.63;5247909;28;20025;-67
2022/03/05 00:04:45;;;;;;;35.53;15.93;;;;;;;-0.44;89.66;101852.97;5250189;28;20064;-67
2022/03/05 00:07:16;;;;;;;36.80;16.00;;;;;;;-0.53;90.00;101843.50;5251150;28;20044;-67
2022/03/05 00:09:47;;;;;;;35.28;16.02;;;;;;;-0.52;89.95;101847.84;5246118;28;20037;-67
2022/03/05 00:12:19;;;;;;;34.63;16.00;;;;;;;-0.54;90.03;101839.13;5246188;28;20041;-67
2022/03/05 00:14:50;;;;;;;32.28;16.20;;;;;;;-0.56;90.28;101851.38;5249973;28;20057;-67
2022/03/05 00:17:22;;;;;;;33.90;16.83;;;;;;;-0.60;90.38;101844.47;5250132;28;20029;-67
2022/03/05 00:19:54;;;;;;;36.83;16.80;;;;;;;-0.63;90.67;101853.25;5241021;28;20119;-67
2022/03/05 00:22:26;;;;;;;36.80;17.15;;;;;;;-0.68;90.42;101849.81;5240125;28;20025;-68
2022/03/05 00:24:57;;;;;;;38.45;17.33;;;;;;;-0.67;90.51;101855.91;5247884;28;20029;-68
2022/03/05 00:27:28;;;;;;;35.97;16.20;;;;;;;-0.70;90.80;101859.44;5248729;28;20465;-67
2022/03/05 00:29:59;;;;;;;35.55;16.40;;;;;;;-0.73;90.87;101851.66;5248671;28;20033;-68
2022/03/05 00:32:31;;;;;;;38.38;17.13;;;;;;;-0.75;91.07;101857.78;5241386;28;20036;-67
2022/03/05 00:35:03;;;;;;;38.20;17.10;;;;;;;-0.81;91.66;101856.09;5238453;28;20307;-67
2022/03/05 00:37:34;;;;;;;41.38;18.60;;;;;;;-0.82;91.39;101857.84;5240597;28;20472;-68
2022/03/05 00:40:06;;;;;;;39.17;17.63;;;;;;;-0.83;91.77;101850.88;5236234;28;20033;-68
2022/03/05 00:42:37;;;;;;;35.85;17.67;;;;;;;-0.93;91.71;101844.03;5249192;28;20128;-67
2022/03/05 00:45:09;;;;;;;40.15;18.00;;;;;;;-0.94;91.87;101844.94;5237284;28;20033;-68
2022/03/05 00:47:41;;;;;;;37.50;17.90;;;;;;;-0.94;92.06;101851.91;5240547;28;20035;-67
2022/03/05 00:50:12;;;;;;;39.92;19.10;;;;;;;-0.90;92.42;101848.34;5243265;28;20036;-67
2022/03/05 00:52:44;;;;;;;41.00;19.38;;;;;;;-1.00;92.54;101840.63;5241639;28;20035;-67
2022/03/05 00:55:15;;;;;;;42.35;20.25;;;;;;;-1.04;92.42;101841.53;5240480;28;20169;-67
2022/03/05 00:57:46;;;;;;;41.67;19.40;;;;;;;-1.05;92.85;101847.66;5243006;28;20040;-67
2022/03/05 01:00:18;;;;;;;40.95;18.90;;;;;;;-1.04;92.68;101840.66;5241467;28;20037;-67
2022/03/05 01:02:49;;;;;;;41.42;18.33;;;;;;;-1.10;92.39;101838.13;5240059;28;20041;-67
2022/03/05 01:05:20;;;;;;;42.08;19.50;;;;;;;-1.15;92.69;101847.78;5242489;28;20029;-68
2022/03/05 01:07:52;;;;;;;42.10;19.65;;;;;;;-1.16;92.74;101846.06;5241837;28;20056;-67
2022/03/05 01:10:23;;;;;;;43.55;18.75;;;;;;;-1.18;93.26;101853.94;5239995;28;21333;-67
2022/03/05 01:12:54;;;;;;;42.45;20.00;;;;;;;-1.20;93.72;101848.72;5239552;28;20036;-67
2022/03/05 01:15:26;;;;;;;43.40;19.45;;;;;;;-1.24;93.47;101841.78;5240981;28;20487;-67
2022/03/05 01:17:58;;;;;;;40.63;18.85;;;;;;;-1.29;93.90;101834.84;5246453;28;20398;-67
2022/03/05 01:20:29;;;;;;;41.77;19.83;;;;;;;-1.30;93.56;101839.25;5251667;28;20043;-67
2022/03/05 01:23:00;;;;;;;41.25;19.45;;;;;;;-1.37;93.46;101842.78;5256541;28;20159;-67
2022/03/05 01:25:32;;;;;;;46.58;21.50;;;;;;;-1.36;94.02;101841.94;5254778;28;20437;-68
2022/03/05 01:28:03;;;;;;;47.05;21.02;;;;;;;-1.34;94.03;101839.28;5249983;28;20339;-67
2022/03/05 01:30:35;;;;;;;44.22;20.48;;;;;;;-1.38;94.29;101846.31;5246885;28;20329;-67
2022/03/05 01:33:06;;;;;;;42.40;19.50;;;;;;;-1.47;94.28;101844.66;5252350;28;20021;-67
2022/03/05 01:35:37;;;;;;;43.87;20.00;;;;;;;-1.50;94.78;101842.06;5249851;28;20506;-67
2022/03/05 01:38:09;;;;;;;42.10;20.90;;;;;;;-1.49;94.82;101835.94;5247977;28;20051;-67
2022/03/05 01:40:41;;;;;;;46.05;20.35;;;;;;;-1.64;94.53;101843.94;5246891;28;20112;-67
2022/03/05 01:43:13;;;;;;;45.22;21.00;;;;;;;-1.53;95.50;101843.81;5253684;28;20341;-67
2022/03/05 01:45:44;;;;;;;47.15;21.20;;;;;;;-1.55;95.74;101840.38;5250014;28;20482;-67
2022/03/05 01:48:15;;;;;;;45.57;21.33;;;;;;;-1.60;95.60;101836.03;5251944;28;20041;-67
2022/03/05 01:50:47;;;;;;;49.47;21.85;;;;;;;-1.67;95.37;101841.34;5244361;28;20032;-67
2022/03/05 01:53:18;;;;;;;48.78;22.38;;;;;;;-1.70;95.64;101839.66;5253479;28;20021;-67
2022/03/05 01:55:50;;;;;;;49.72;21.75;;;;;;;-1.74;95.71;101842.31;5247451;28;20037;-67
2022/03/05 01:58:21;;;;;;;48.80;21.75;;;;;;;-1.70;95.75;101844.88;5252122;28;20029;-67
2022/03/05 02:00:52;;;;;;;52.33;23.45;;;;;;;-1.80;95.84;101851.94;5247716;28;20421;-66
2022/03/05 02:03:24;;;;;;;46.53;21.63;;;;;;;-1.88;95.61;101845.94;5253296;28;20029;-67
2022/03/05 02:05:55;;;;;;;45.92;21.25;;;;;;;-1.88;95.87;101835.47;5251867;28;20035;-67
2022/03/05 02:08:26;;;;;;;46.37;20.53;;;;;;;-1.87;96.45;101839.78;5251799;28;20028;-67
2022/03/05 02:10:57;;;;;;;45.57;21.00;;;;;;;-1.88;96.58;101840.69;5239082;28;20033;-67
2022/03/05 02:13:29;;;;;;;46.53;22.07;;;;;;;-1.93;96.19;101842.47;5257452;28;20032;-67
2022/03/05 02:16:00;;;;;;;48.45;22.10;;;;;;;-1.96;96.55;101845.09;5252797;28;20083;-67
2022/03/05 02:18:31;;;;;;;47.05;21.48;;;;;;;-2.00;96.71;101843.41;5254026;28;20514;-67
2022/03/05 02:21:03;;;;;;;48.20;21.87;;;;;;;-2.00;96.87;101832.94;5251208;28;20056;-67
2022/03/05 02:23:34;;;;;;;53.13;23.25;;;;;;;-2.10;96.68;101840.00;5249019;28;20036;-67
2022/03/05 02:26:06;;;;;;;50.77;22.37;;;;;;;-2.07;97.45;101831.25;5250149;28;20082;-67
2022/03/05 02:28:38;;;;;;;51.10;22.57;;;;;;;-2.19;97.30;101826.97;5250066;28;20029;-67
2022/03/05 02:31:09;;;;;;;49.00;22.33;;;;;;;-2.12;97.68;101826.06;5241534;28;20056;-67
2022/03/05 02:33:42;;;;;;;48.07;21.63;;;;;;;-2.09;97.91;101820.81;5248523;28;20475;-67
2022/03/05 02:36:14;;;;;;;55.70;23.53;;;;;;;-2.08;98.77;101822.53;5246881;28;20561;-67
2022/03/05 02:38:45;;;;;;;50.93;24.27;;;;;;;-2.08;98.54;101819.06;5241401;28;20024;-67
2022/03/05 02:41:18;;;;;;;53.43;24.20;;;;;;;-2.10;99.24;101811.22;5245098;28;20032;-67
2022/03/05 02:43:49;;;;;;;53.25;23.98;;;;;;;-2.20;98.86;101815.66;5248903;28;20032;-67
2022/03/05 02:46:26;;;;;;;50.23;23.87;;;;;;;-2.23;99.02;101825.28;5248681;28;20074;-67
2022/03/05 02:48:58;;;;;;;56.23;23.67;;;;;;;-2.23;98.81;101822.66;5255368;28;20109;-67
2022/03/05 02:51:30;;;;;;;51.55;23.48;;;;;;;-2.28;98.62;101832.28;5252477;28;20040;-67
2022/03/05 02:54:01;;;;;;;53.70;25.10;;;;;;;-2.37;98.38;101823.63;5250703;28;20167;-67
2022/03/05 02:56:33;;;;;;;55.93;24.30;;;;;;;-2.33;98.74;101832.31;5243280;28;20033;-67
2022/03/05 02:59:04;;;;;;;49.87;23.50;;;;;;;-2.35;99.13;101830.59;5251576;28;20466;-67
2022/03/05 03:01:35;;;;;;;51.90;24.43;;;;;;;-2.38;98.85;101828.88;5249256;28;20029;-67
2022/03/05 03:04:06;;;;;;;49.95;23.80;;;;;;;-2.44;99.24;101826.31;5250447;28;20033;-67
2022/03/05 03:06:38;;;;;;;57.23;24.70;;;;;;;-2.42;99.00;101828.00;5253811;28;20359;-66
2022/03/05 03:09:09;;;;;;;49.90;23.80;;;;;;;-2.52;99.17;101828.09;5256174;28;20068;-67
2022/03/05 03:11:40;;;;;;;58.80;24.87;;;;;;;-2.52;99.27;101828.97;5250368;28;20036;-67
2022/03/05 03:14:12;;;;;;;56.03;24.80;;;;;;;-2.57;99.26;101828.13;5253516;28;20884;-67
2022/03/05 03:16:43;;;;;;;55.57;24.53;;;;;;;-2.59;99.05;101829.88;5250466;28;20037;-67
2022/03/05 03:19:14;;;;;;;53.80;25.07;;;;;;;-2.67;99.42;101827.31;5251521;28;20041;-67
2022/03/05 03:21:46;;;;;;;53.20;25.17;;;;;;;-2.66;99.38;101816.00;5251087;28;20517;-67
2022/03/05 03:24:17;;;;;;;54.07;23.67;;;;;;;-2.72;100.00;101818.66;5245372;28;20029;-67
2022/03/05 03:26:48;;;;;;;57.00;23.93;;;;;;;-2.73;100.00;101821.25;5249354;28;20029;-67
2022/03/05 03:29:19;;;;;;;54.33;26.33;;;;;;;-2.78;100.00;101824.78;5253964;28;20189;-67
2022/03/05 03:31:51;;;;;;;51.00;23.23;;;;;;;-2.78;100.00;101818.66;5243142;28;20399;-67
2022/03/05 03:34:22;;;;;;;56.57;24.47;;;;;;;-2.87;100.00;101816.97;5242320;28;20507;-67
2022/03/05 03:36:53;;;;;;;55.43;25.73;;;;;;;-2.84;100.00;101813.47;5248579;28;20056;-67
2022/03/05 03:39:24;;;;;;;55.30;25.23;;;;;;;-2.90;100.00;101818.75;5239936;28;20044;-67
2022/03/05 03:41:56;;;;;;;54.13;23.77;;;;;;;-2.96;100.00;101806.59;5252926;28;20483;-67
2022/03/05 03:44:27;;;;;;;55.10;24.10;;;;;;;-3.00;100.00;101808.34;5249359;28;20119;-67
2022/03/05 03:46:58;;;;;;;58.33;24.47;;;;;;;-2.99;100.00;101812.69;5246591;28;20103;-66
2022/03/05 03:49:30;;;;;;;53.70;24.70;;;;;;;-3.02;100.00;101812.69;5248642;28;20044;-67
2022/03/05 03:52:01;;;;;;;55.77;24.50;;;;;;;-3.07;100.00;101819.66;5252963;28;20471;-67
2022/03/05 03:54:33;;;;;;;57.50;25.13;;;;;;;-3.03;100.00;101818.81;5247027;28;20387;-67
2022/03/05 03:57:04;;;;;;;61.47;25.43;;;;;;;-3.10;100.00;101822.31;5249666;28;20086;-67
2022/03/05 03:59:35;;;;;;;53.53;23.50;;;;;;;-3.09;100.00;101816.19;5252532;28;20029;-67
2022/03/05 04:02:07;;;;;;;59.23;25.20;;;;;;;-3.06;100.00;101820.56;5248548;28;20056;-67
2022/03/05 04:04:38;;;;;;;62.73;26.00;;;;;;;-3.08;100.00;101814.47;5248233;28;20422;-67
2022/03/05 04:10:00;;;;;;;53.53;24.43;;;;;;;-3.09;100.00;101812.72;5242580;28;20411;-67
2022/03/05 04:12:31;;;;;;;60.43;24.37;;;;;;;-3.13;100.00;101813.63;5232112;28;20025;-67
2022/03/05 04:15:04;;;;;;;58.63;25.23;;;;;;;-3.14;100.00;101810.16;5246918;28;20438;-67
2022/03/05 04:17:37;;;;;;;61.60;25.93;;;;;;;-3.09;100.00;101816.19;5244351;28;20033;-67
2022/03/05 04:20:09;;;;;;;59.37;25.17;;;;;;;-3.15;100.00;101824.94;5252349;28;20510;-67
2022/03/05 04:22:40;;;;;;;58.63;27.43;;;;;;;-3.18;100.00;101822.34;5244566;28;20036;-67
2022/03/05 04:25:11;;;;;;;59.03;24.87;;;;;;;-3.24;100.00;101817.16;5253949;28;20038;-67
2022/03/05 04:27:42;;;;;;;60.60;25.57;;;;;;;-3.26;100.00;101825.84;5254729;28;20135;-67
2022/03/05 04:30:14;;;;;;;57.90;25.27;;;;;;;-3.27;100.00;101827.59;5254354;28;20230;-68
2022/03/05 04:32:45;;;;;;;62.97;25.63;;;;;;;-3.23;100.00;101815.41;5249731;28;20173;-67
2022/03/05 04:35:17;;;;;;;64.30;26.37;;;;;;;-3.28;100.00;101824.97;5256314;28;20462;-67
2022/03/05 04:37:48;;;;;;;61.57;26.30;;;;;;;-3.25;100.00;101824.97;5249268;28;20716;-67
2022/03/05 04:40:19;;;;;;;61.20;26.20;;;;;;;-3.30;100.00;101831.94;5251994;28;20087;-67
2022/03/05 04:42:50;;;;;;;60.73;25.23;;;;;;;-3.33;100.00;101840.66;5251508;28;20051;-67
2022/03/05 04:45:22;;;;;;;61.97;25.53;;;;;;;-3.37;100.00;101833.72;5250636;28;20029;-67
2022/03/05 04:47:53;;;;;;;60.80;25.83;;;;;;;-3.32;100.00;101833.69;5249817;28;20399;-68
2022/03/05 04:50:25;;;;;;;59.20;25.97;;;;;;;-3.31;100.00;101830.22;5256918;28;20116;-67
2022/03/05 04:52:56;;;;;;;59.03;25.87;;;;;;;-3.38;100.00;101832.84;5253929;28;20475;-67
2022/03/05 04:55:27;;;;;;;58.60;24.80;;;;;;;-3.42;100.00;101838.94;5251948;28;20494;-68
2022/03/05 04:57:58;;;;;;;62.53;26.10;;;;;;;-3.47;100.00;101835.50;5253507;28;20044;-67
2022/03/05 05:00:30;;;;;;;59.10;26.33;;;;;;;-3.42;100.00;101840.69;5250258;28;20029;-68
2022/03/05 05:03:01;;;;;;;61.97;24.97;;;;;;;-3.44;100.00;101845.91;5248968;28;20051;-68
2022/03/05 05:05:32;;;;;;;58.30;25.40;;;;;;;-3.44;100.00;101851.13;5257535;28;20025;-68
2022/03/05 05:08:04;;;;;;;61.27;25.37;;;;;;;-3.43;100.00;101845.03;5249939;28;20142;-68
2022/03/05 05:10:35;;;;;;;60.17;24.33;;;;;;;-3.47;100.00;101837.22;5254380;28;20398;-67
2022/03/05 05:13:06;;;;;;;61.23;26.63;;;;;;;-3.44;100.00;101839.81;5253799;28;20372;-68
2022/03/05 05:15:38;;;;;;;61.37;25.73;;;;;;;-3.54;100.00;101838.97;5252702;28;20057;-68
2022/03/05 05:18:10;;;;;;;57.50;24.80;;;;;;;-3.50;100.00;101843.31;5254060;28;20114;-68
2022/03/05 05:20:41;;;;;;;63.70;26.13;;;;;;;-3.48;100.00;101843.31;5247102;28;20032;-67
2022/03/05 05:23:12;;;;;;;62.83;25.73;;;;;;;-3.49;100.00;101839.84;5253491;28;20112;-67
2022/03/05 05:25:44;;;;;;;54.97;24.53;;;;;;;-3.56;100.00;101843.34;5248092;28;20043;-68
2022/03/05 05:28:15;;;;;;;61.23;25.97;;;;;;;-3.53;100.00;101840.69;5253096;28;20020;-68
2022/03/05 05:30:46;;;;;;;60.40;25.10;;;;;;;-3.53;100.00;101843.31;5251450;28;20057;-68
2022/03/05 05:33:19;;;;;;;58.83;25.97;;;;;;;-3.52;100.00;101852.03;5250671;28;20102;-67
2022/03/05 05:35:51;;;;;;;62.10;25.93;;;;;;;-3.56;100.00;101851.16;5248388;28;20384;-68
2022/03/05 05:38:22;;;;;;;62.37;26.33;;;;;;;-3.54;100.00;101859.84;5242401;28;20033;-68
2022/03/05 05:40:53;;;;;;;57.07;24.53;;;;;;;-3.58;100.00;101855.50;5250818;28;20379;-68
2022/03/05 05:43:24;;;;;;;59.90;25.20;;;;;;;-3.60;100.00;101870.28;5256122;28;20033;-68
2022/03/05 05:45:56;;;;;;;65.63;25.30;;;;;;;-3.63;100.00;101865.06;5248851;28;20094;-68
2022/03/05 05:48:27;;;;;;;58.83;25.50;;;;;;;-3.60;100.00;101862.47;5247314;28;20033;-68
2022/03/05 05:50:58;;;;;;;59.37;25.23;;;;;;;-3.59;100.00;101866.81;5254692;28;20037;-68
2022/03/05 05:53:30;;;;;;;61.30;27.27;;;;;;;-3.65;100.00;101870.28;5252949;28;20111;-68
2022/03/05 05:56:01;;;;;;;60.23;25.00;;;;;;;-3.66;100.00;101873.78;5247937;28;20044;-68
2022/03/05 05:58:32;;;;;;;56.90;24.40;;;;;;;-3.65;100.00;101885.06;5251500;28;20041;-68
2022/03/05 06:01:04;;;;;;;60.80;26.07;;;;;;;-3.62;100.00;101872.03;5255028;28;20106;-68
2022/03/05 06:03:35;;;;;;;66.73;25.80;;;;;;;-3.66;100.00;101875.50;5246154;28;20025;-68
2022/03/05 06:06:06;;;;;;;59.20;24.53;;;;;;;-3.68;100.00;101874.63;5259991;28;20116;-68
2022/03/05 06:08:38;;;;;;;61.50;25.40;;;;;;;-3.67;100.00;101866.81;5251141;28;20064;-68
2022/03/05 06:11:10;;;;;;;61.27;24.83;;;;;;;-3.66;100.00;101871.16;5250947;28;20025;-68
2022/03/05 06:13:41;;;;;;;62.60;26.07;;;;;;;-3.67;100.00;101871.16;5255236;28;20044;-68
2022/03/05 06:16:13;;;;;;;58.50;24.90;;;;;;;-3.72;100.00;101865.97;5244254;28;20515;-68
2022/03/05 06:18:44;;;;;;;61.23;25.67;;;;;;;-3.70;100.00;101866.84;5251785;28;20033;-68
2022/03/05 06:21:16;;;;;;;59.53;24.90;;;;;;;-3.67;100.00;101864.19;5252552;28;20047;-69
2022/03/05 06:23:47;;;;;;;66.10;25.73;;;;;;;-3.72;100.00;101868.56;5252416;28;20387;-68
2022/03/05 06:26:19;;;;;;;59.90;24.20;;;;;;;-3.70;100.00;101871.16;5254279;28;20028;-68
2022/03/05 06:28:50;;;;;;;62.87;26.80;;;;;;;-3.73;100.00;101868.56;5249054;28;20246;-68
2022/03/05 06:31:21;;;;;;;62.60;25.73;;;;;;;-3.70;100.00;101872.06;5247424;28;20514;-68
2022/03/05 06:33:52;;;;;;;69.67;25.13;;;;;;;-3.70;100.00;101877.25;5241326;28;20478;-68
2022/03/05 06:36:24;;;;;;;64.77;27.17;;;;;;;-3.70;100.00;101882.47;5245291;28;20487;-68
2022/03/05 06:38:56;;;;;;;61.83;25.23;;;;;;;-3.73;100.00;101886.81;5240690;28;20653;-68
2022/03/05 06:41:27;;;;;;;61.80;25.40;;;;;;;-3.65;100.00;101883.31;5241574;28;20029;-68
2022/03/05 06:43:58;;;;;;;67.37;25.60;;;;;;;-3.64;100.00;101881.59;5246992;28;20057;-68
2022/03/05 06:46:29;;;;;;;62.90;25.60;;;;;;;-3.63;100.00;101888.53;5242539;28;20036;-68
2022/03/05 06:49:01;;;;;;;62.83;25.43;;;;;;;-3.66;100.00;101881.59;5241530;28;20094;-68
2022/03/05 06:51:32;;;;;;;62.77;23.80;;;;;;;-3.66;100.00;101875.50;5243936;28;20035;-69
2022/03/05 06:54:03;;;;;;;67.03;25.90;;;;;;;-3.60;100.00;101896.38;5243505;28;20394;-68
2022/03/05 06:56:35;;;;;;;64.33;25.30;;;;;;;-3.59;100.00;101887.66;5243616;28;20555;-68
2022/03/05 06:59:06;;;;;;;59.70;25.07;;;;;;;-3.59;100.00;101880.69;5242853;28;20033;-68
2022/03/05 07:01:37;;;;;;;62.60;24.80;;;;;;;-3.55;100.00;101892.91;5244680;28;20046;-68
2022/03/05 07:04:09;;;;;;;71.23;26.53;;;;;;;-3.53;100.00;101897.22;5242767;28;20067;-68
2022/03/05 07:06:40;;;;;;;63.67;25.87;;;;;;;-3.53;100.00;101895.47;5242655;28;20036;-68
2022/03/05 07:09:12;;;;;;;68.30;25.67;;;;;;;-3.49;100.00;101896.34;5247025;28;20078;-68
2022/03/05 07:11:43;;;;;;;64.03;25.77;;;;;;;-3.48;100.00;101903.31;5249430;28;20040;-68
2022/03/05 07:14:14;;;;;;;61.60;24.17;;;;;;;-3.48;100.00;101895.50;5244274;28;20067;-68
2022/03/05 07:16:45;;;;;;;65.70;24.97;;;;;;;-3.40;100.00;101906.78;5252995;28;20043;-68
2022/03/05 07:19:17;;;;;;;66.63;26.43;;;;;;;-3.37;100.00;101906.78;5251241;28;20036;-68
2022/03/05 07:21:48;;;;;;;64.20;26.17;;;;;;;-3.36;100.00;101909.41;5252215;28;20098;-68
2022/03/05 07:24:19;;;;;;;72.03;26.03;;;;;;;-3.33;100.00;101912.88;5247931;28;20407;-68
2022/03/05 07:26:50;;;;;;;71.87;26.80;;;;;;;-3.32;100.00;101915.44;5250873;28;20062;-66
2022/03/05 07:29:22;;;;;;;62.30;24.73;;;;;;;-3.26;100.00;101917.19;5253510;28;20067;-68
2022/03/05 07:31:53;;;;;;;67.17;25.97;;;;;;;-3.20;100.00;101914.59;5244220;28;20185;-68
2022/03/05 07:34:24;;;;;;;66.33;25.67;;;;;;;-3.16;100.00;101911.09;5249013;28;20502;-68
2022/03/05 07:36:57;;;;;;;69.63;27.17;;;;;;;-3.15;100.00;101910.19;5254908;28;20086;-68
2022/03/05 07:39:28;;;;;;;70.47;27.03;;;;;;;-3.06;100.00;101912.78;5252986;28;20547;-68
2022/03/05 07:42:00;;;;;;;62.73;25.83;;;;;;;-3.04;100.00;101913.66;5247998;28;20037;-68
2022/03/05 07:44:31;;;;;;;66.33;26.03;;;;;;;-3.01;100.00;101910.16;5248804;28;20087;-68
2022/03/05 07:47:04;;;;;;;69.67;27.90;;;;;;;-2.92;100.00;101909.28;5256893;28;20430;-68
2022/03/05 07:49:35;;;;;;;65.23;25.87;;;;;;;-2.94;100.00;101904.03;5254644;28;20029;-68
2022/03/05 07:52:06;;;;;;;73.23;27.80;;;;;;;-2.83;100.00;101898.78;5253976;28;20043;-69
2022/03/05 07:54:37;;;;;;;62.93;25.20;;;;;;;-2.78;100.00;101902.22;5254163;28;20159;-68
2022/03/05 07:57:09;;;;;;;68.33;26.27;;;;;;;-2.71;100.00;101908.31;5252708;28;20090;-68
2022/03/05 07:59:40;;;;;;;63.93;25.20;;;;;;;-2.64;100.00;101910.91;5260520;28;20482;-68
2022/03/05 08:02:15;;;;;;;73.53;27.57;;;;;;;-2.60;100.00;101917.84;5256422;28;20040;-68
2022/03/05 08:04:47;;;;;;;79.03;29.40;;;;;;;-2.52;100.00;101916.94;5252423;28;20037;-68
2022/03/05 08:07:19;;;;;;;70.77;29.30;;;;;;;-2.41;100.00;101933.44;5259082;28;20068;-68
2022/03/05 08:09:51;;;;;;;68.00;28.33;;;;;;;-2.33;100.00;101934.25;5252763;28;20408;-68
2022/03/05 08:12:22;;;;;;;69.40;27.87;;;;;;;-2.29;100.00;101930.75;5250201;28;20028;-68
2022/03/05 08:14:53;;;;;;;68.77;29.40;;;;;;;-2.22;100.00;101936.81;5257300;28;20056;-68
2022/03/05 08:17:25;;;;;;;71.37;29.73;;;;;;;-2.14;100.00;101939.38;5254555;28;20495;-68
2022/03/05 08:19:56;;;;;;;66.73;27.10;;;;;;;-2.07;100.00;101933.22;5251601;28;20037;-68
2022/03/05 08:22:28;;;;;;;69.87;28.70;;;;;;;-2.01;100.00;101943.66;5255923;28;20060;-68
2022/03/05 08:24:59;;;;;;;67.30;27.07;;;;;;;-1.94;100.00;101940.09;5250536;28;20120;-68
2022/03/05 08:27:30;;;;;;;66.27;25.97;;;;;;;-1.92;100.00;101943.56;5258399;28;20033;-68
2022/03/05 08:30:03;;;;;;;64.40;26.80;;;;;;;-1.83;100.00;101955.72;5255810;28;20045;-68
2022/03/05 08:32:35;;;;;;;64.30;26.50;;;;;;;-1.81;100.00;101947.00;5259678;28;20033;-68
2022/03/05 08:35:08;;;;;;;66.13;26.13;;;;;;;-1.69;100.00;101950.41;5257332;28;20074;-68
2022/03/05 08:37:40;;;;;;;61.63;25.42;;;;;;;-1.62;100.00;101946.84;5256617;28;20040;-68
2022/03/05 08:40:13;;;;;;;65.77;26.50;;;;;;;-1.52;100.00;101950.25;5256883;28;20425;-68
2022/03/05 08:42:46;;;;;;;60.23;25.03;;;;;;;-1.41;100.00;101949.28;5258411;28;20032;-68
2022/03/05 08:45:17;;;;;;;64.10;25.30;;;;;;;-1.41;100.00;101946.66;5257738;28;20032;-68
2022/03/05 08:47:49;;;;;;;62.42;25.42;;;;;;;-1.31;100.00;101951.81;5256606;28;20947;-68
2022/03/05 08:50:20;;;;;;;59.63;24.88;;;;;;;-1.23;100.00;101947.38;5256812;28;20075;-68
2022/03/05 08:52:51;;;;;;;61.90;25.70;;;;;;;-1.19;100.00;101951.69;5257636;28;20032;-68
2022/03/05 08:55:23;;;;;;;62.53;25.23;;;;;;;-1.10;100.00;101954.22;5256236;28;20037;-68
2022/03/05 08:57:54;;;;;;;59.90;24.80;;;;;;;-1.03;100.00;101942.81;5257286;28;20029;-67
2022/03/05 09:00:26;;;;;;;59.70;25.70;;;;;;;-0.96;100.00;101940.97;5256472;28;20036;-68
2022/03/05 09:02:57;;;;;;;62.47;25.00;;;;;;;-0.87;100.00;101937.41;5257213;28;20074;-68
2022/03/05 09:05:29;;;;;;;59.97;25.60;;;;;;;-0.81;100.00;101945.19;5257130;28;20028;-68
2022/03/05 09:08:00;;;;;;;60.70;25.60;;;;;;;-0.70;100.00;101943.31;5255042;28;20033;-68
2022/03/05 09:10:31;;;;;;;62.67;24.98;;;;;;;-0.65;99.57;101949.38;5256780;28;20079;-68
2022/03/05 09:13:02;;;;;;;63.03;25.35;;;;;;;-0.58;99.46;101947.53;5256982;28;20582;-68
2022/03/05 09:15:34;;;;;;;61.10;25.65;;;;;;;-0.49;98.47;101947.41;5257756;28;20481;-68
2022/03/05 09:18:05;;;;;;;60.53;25.58;;;;;;;-0.44;97.82;101949.97;5254366;28;20029;-68
2022/03/05 09:20:37;;;;;;;55.95;23.80;;;;;;;-0.33;97.70;101950.69;5255097;28;20048;-68
2022/03/05 09:23:08;;;;;;;54.92;24.92;;;;;;;-0.25;97.30;101942.72;5255863;28;20032;-68
2022/03/05 09:25:40;;;;;;;58.47;25.15;;;;;;;-0.10;96.75;101944.28;5256936;28;20039;-68
2022/03/05 09:28:11;;;;;;;56.50;24.00;;;;;;;-0.08;96.29;101942.50;5254818;28;20024;-68
2022/03/05 09:30:43;;;;;;;55.15;24.85;;;;;;;-0.04;95.52;101933.69;5256533;28;20548;-68
2022/03/05 09:33:14;;;;;;;60.97;27.55;;;;;;;0.02;95.31;101930.09;5255763;28;20036;-68
2022/03/05 09:35:45;;;;;;;54.75;24.20;;;;;;;0.08;95.16;101930.88;5257358;28;20041;-68
2022/03/05 09:38:17;;;;;;;51.47;23.17;;;;;;;0.29;94.97;101927.06;5255488;28;20106;-68
2022/03/05 09:40:49;;;;;;;54.13;23.70;;;;;;;0.39;93.97;101931.25;5256427;28;20552;-68
2022/03/05 09:43:21;;;;;;;53.40;23.70;;;;;;;0.56;93.36;101933.59;5255860;28;20032;-68
2022/03/05 09:45:53;;;;;;;51.67;22.85;;;;;;;0.62;91.64;101923.91;5256175;28;20025;-68
2022/03/05 09:48:27;;;;;;;57.83;25.02;;;;;;;0.66;91.79;101928.19;5255086;28;20033;-68
2022/03/05 09:50:59;;;;;;;51.72;23.75;;;;;;;0.76;91.13;101935.00;5257299;28;20471;-68
2022/03/05 09:53:31;;;;;;;49.58;23.15;;;;;;;0.92;90.16;101925.97;5254201;28;20021;-68
2022/03/05 09:56:03;;;;;;;49.30;23.67;;;;;;;1.10;89.41;101929.97;5255617;28;20044;-68
2022/03/05 09:58:34;;;;;;;50.70;23.35;;;;;;;1.14;88.86;101922.91;5256590;28;20033;-68
2022/03/05 10:01:05;;;;;;;46.92;23.30;;;;;;;1.39;88.64;101935.56;5257308;28;20036;-68
2022/03/05 10:03:48;;;;;;;52.75;24.55;;;;;;;1.46;87.13;101924.88;5253403;28;20339;-68
2022/03/05 10:06:24;;;;;;;52.70;23.58;;;;;;;1.56;86.05;101929.03;5256513;28;20029;-68
2022/03/05 10:08:56;;;;;;;48.17;23.38;;;;;;;1.63;86.70;101927.16;5253763;28;20480;-68
2022/03/05 10:11:39;;;;;;;46.45;22.05;;;;;;;1.74;83.46;101927.75;5255309;28;20052;-68
2022/03/05 10:14:17;;;;;;;43.58;21.45;;;;;;;1.78;83.46;101925.94;5254640;28;20514;-68
2022/03/05 10:16:48;;;;;;;45.75;21.85;;;;;;;1.89;82.34;101929.19;5254268;28;20766;-68
2022/03/05 10:19:22;;;;;;;44.15;20.95;;;;;;;2.04;81.29;101927.97;5256378;28;20036;-68
2022/03/05 10:22:03;;;;;;;42.72;21.02;;;;;;;2.14;80.38;101928.63;5254324;28;20024;-68
2022/03/05 10:24:37;;;;;;;44.90;21.83;;;;;;;2.35;78.20;101929.84;5254210;28;20067;-68
2022/03/05 10:27:10;;;;;;;46.17;21.67;;;;;;;2.51;78.11;101928.59;5257058;28;20100;-68
2022/03/05 10:29:41;;;;;;;48.90;20.60;;;;;;;2.61;77.46;101928.31;5253461;28;20690;-68
2022/03/05 10:32:15;;;;;;;42.05;21.25;;;;;;;2.59;75.55;101917.84;5256017;28;20211;-68
2022/03/05 10:34:50;;;;;;;44.33;21.48;;;;;;;2.59;76.36;101922.22;5254240;28;20033;-68
2022/03/05 10:37:23;;;;;;;42.58;21.38;;;;;;;2.63;75.43;101926.53;5254796;28;20041;-68
2022/03/05 10:39:54;;;;;;;41.47;20.88;;;;;;;2.69;76.49;101929.88;5253260;28;20077;-68
2022/03/05 10:42:27;;;;;;;40.22;21.00;;;;;;;2.78;76.33;101923.50;5256579;28;20455;-68
2022/03/05 10:45:09;;;;;;;43.42;21.50;;;;;;;2.83;76.15;101926.00;5253001;28;20475;-68
2022/03/05 10:47:42;;;;;;;39.92;21.38;;;;;;;2.87;74.58;101925.88;5254636;28;20021;-68
2022/03/05 10:50:29;;;;;;;33.70;16.37;;;;;;;2.81;76.87;101922.56;5255021;28;20111;-68
2022/03/05 10:53:01;;;;;;;43.35;21.05;;;;;;;2.98;73.54;101932.66;5255795;28;20086;-68
2022/03/05 10:55:37;;;;;;;45.75;20.98;;;;;;;3.07;75.74;101930.63;5254494;28;20033;-69
2022/03/05 10:58:14;;;;;;;45.83;22.48;;;;;;;3.31;73.28;101928.19;5252094;28;20031;-68
2022/03/05 11:00:49;;;;;;;40.42;20.80;;;;;;;3.43;72.40;101924.31;5249352;28;20025;-69
2022/03/05 11:03:21;;;;;;;42.28;21.83;;;;;;;3.51;72.95;101927.63;5253442;28;20301;-68
2022/03/05 11:05:53;;;;;;;42.10;22.17;;;;;;;3.61;73.07;101933.50;5252133;28;20029;-68
2022/03/05 11:08:26;;;;;;;38.55;21.10;;;;;;;3.78;72.44;101925.91;5253220;28;20095;-68
2022/03/05 11:10:57;;;;;;;38.90;20.50;;;;;;;3.76;70.20;101926.84;5249450;28;20033;-68
2022/03/05 11:13:29;;;;;;;41.33;21.38;;;;;;;3.76;73.10;101924.22;5250219;28;20078;-68
2022/03/05 11:16:02;;;;;;;45.72;22.02;;;;;;;3.76;72.89;101921.59;5251311;28;20367;-69
2022/03/05 11:18:33;;;;;;;33.67;17.73;;;;;;;3.82;73.98;101922.28;5253250;28;20033;-69
2022/03/05 11:21:06;;;;;;;45.33;22.27;;;;;;;3.95;73.94;101927.16;5251941;28;20032;-68
2022/03/05 11:23:40;;;;;;;46.15;22.70;;;;;;;4.05;73.49;101923.34;5252494;28;20031;-69
2022/03/05 11:26:13;;;;;;;48.33;23.57;;;;;;;4.07;75.19;101922.38;5251514;28;20144;-68
2022/03/05 11:28:46;;;;;;;41.65;22.63;;;;;;;4.15;72.14;101918.63;5251688;28;20039;-68
2022/03/05 11:31:30;;;;;;;36.90;20.00;;;;;;;4.21;73.04;101921.06;5251941;28;20067;-69